createdAt,value
2018-06-30T00:00:46.327Z,23.30
2018-06-30T00:01:46.323Z,22.60
2018-06-30T00:02:46.321Z,23.40
2018-06-30T00:03:46.317Z,23.70
2018-06-30T00:04:46.309Z,24.40
2018-06-30T00:05:46.321Z,23.10
2018-06-30T00:06:46.312Z,22.90
2018-06-30T00:07:46.302Z,22.30
2018-06-30T00:08:46.301Z,21.70
2018-06-30T00:09:46.294Z,21.60
2018-06-30T00:10:46.293Z,22.60
2018-06-30T00:11:46.286Z,22.10
2018-06-30T00:12:46.283Z,23.20
2018-06-30T00:13:46.277Z,23.20
2018-06-30T00:14:46.275Z,22.70
2018-06-30T00:15:46.275Z,21.30
2018-06-30T00:16:46.270Z,22.10
2018-06-30T00:17:46.268Z,21.30
2018-06-30T00:18:46.266Z,22.50
2018-06-30T00:19:46.260Z,21.80
2018-06-30T00:20:46.255Z,21.10
2018-06-30T00:21:46.254Z,21.30
2018-06-30T00:22:46.252Z,21.80
2018-06-30T00:23:46.246Z,22.10
2018-06-30T00:24:46.243Z,21.10
2018-06-30T00:25:46.241Z,22.00
2018-06-30T00:26:46.235Z,22.60
2018-06-30T00:27:46.231Z,22.20
2018-06-30T00:28:46.230Z,22.00
2018-06-30T00:29:46.224Z,22.30
2018-06-30T00:30:46.227Z,21.70
2018-06-30T00:31:46.220Z,20.70
2018-06-30T00:32:46.212Z,21.40
2018-06-30T00:33:46.210Z,20.50
2018-06-30T00:34:46.206Z,20.40
2018-06-30T00:35:46.206Z,21.00
2018-06-30T00:36:46.198Z,20.70
2018-06-30T00:37:46.198Z,20.90
2018-06-30T00:38:46.194Z,19.90
2018-06-30T00:39:46.191Z,19.30
2018-06-30T00:40:46.184Z,19.60
2018-06-30T00:41:46.181Z,19.50
2018-06-30T00:42:46.176Z,19.20
2018-06-30T00:43:46.186Z,18.00
2018-06-30T00:44:46.233Z,18.80
2018-06-30T00:45:46.172Z,18.00
2018-06-30T00:46:46.174Z,17.60
2018-06-30T00:47:46.181Z,17.90
2018-06-30T00:48:46.159Z,17.00
2018-06-30T00:49:46.152Z,17.10
2018-06-30T00:50:46.152Z,17.60
2018-06-30T00:51:46.140Z,17.70
2018-06-30T00:52:46.148Z,17.00
2018-06-30T00:53:46.135Z,17.40
2018-06-30T00:54:46.135Z,16.90
2018-06-30T00:55:46.141Z,17.00
2018-06-30T00:56:46.131Z,16.20
2018-06-30T00:57:46.128Z,16.70
2018-06-30T00:58:46.122Z,16.20
2018-06-30T00:59:46.119Z,17.00
2018-06-30T01:00:46.117Z,16.70
2018-06-30T01:01:46.111Z,16.80
2018-06-30T01:02:46.112Z,16.80
2018-06-30T01:03:46.105Z,16.20
2018-06-30T01:04:46.101Z,16.00
2018-06-30T01:05:46.098Z,16.10
2018-06-30T01:06:46.095Z,16.70
2018-06-30T01:07:46.092Z,16.40
2018-06-30T01:08:46.085Z,16.50
2018-06-30T01:09:46.080Z,16.20
2018-06-30T01:10:46.078Z,16.60
2018-06-30T01:11:46.080Z,16.80
2018-06-30T01:12:46.071Z,16.30
2018-06-30T01:13:46.076Z,16.10
2018-06-30T01:14:46.068Z,17.10
2018-06-30T01:15:46.060Z,16.50
2018-06-30T01:16:46.056Z,16.30
2018-06-30T01:17:46.055Z,16.60
2018-06-30T01:18:46.050Z,16.70
2018-06-30T01:19:46.045Z,16.80
2018-06-30T01:20:46.098Z,17.00
2018-06-30T01:21:46.042Z,17.60
2018-06-30T01:22:46.072Z,17.00
2018-06-30T01:23:46.032Z,17.30
2018-06-30T01:24:46.028Z,18.40
2018-06-30T01:25:46.025Z,17.80
2018-06-30T01:26:46.023Z,18.40
2018-06-30T01:27:46.021Z,18.20
2018-06-30T01:28:46.015Z,18.40
2018-06-30T01:29:46.013Z,18.30
2018-06-30T01:30:46.047Z,18.10
2018-06-30T02:03:45.955Z,16.00
2018-06-30T02:04:45.925Z,23.80
2018-06-30T02:06:38.829Z,27.50
2018-06-30T02:07:38.815Z,27.00
2018-06-30T02:09:31.712Z,26.70
2018-06-30T02:10:31.684Z,26.40
2018-06-30T02:12:24.627Z,26.40
2018-06-30T02:13:24.595Z,26.00
2018-06-30T02:15:17.532Z,25.40
2018-06-30T02:16:17.506Z,25.10
2018-06-30T02:18:10.475Z,25.00
2018-06-30T02:19:10.461Z,25.10
2018-06-30T02:21:03.403Z,24.00
2018-06-30T02:22:03.381Z,25.10
2018-06-30T02:23:56.283Z,24.40
2018-06-30T02:24:56.261Z,24.30
2018-06-30T02:26:49.176Z,24.30
2018-06-30T02:27:49.167Z,24.00
2018-06-30T02:29:42.070Z,23.40
2018-06-30T02:30:42.051Z,23.90
2018-06-30T02:32:34.993Z,24.20
2018-06-30T02:33:34.980Z,24.50
2018-06-30T02:35:27.914Z,24.40
2018-06-30T02:36:27.888Z,24.70
2018-06-30T02:38:20.789Z,25.40
2018-06-30T02:39:20.776Z,26.50
2018-06-30T02:41:13.689Z,27.50
2018-06-30T02:42:13.661Z,27.90
2018-06-30T02:44:06.714Z,28.40
2018-06-30T02:45:06.688Z,28.10
2018-06-30T02:46:59.700Z,29.70
2018-06-30T02:47:59.694Z,30.90
2018-06-30T02:49:52.613Z,30.60
2018-06-30T02:50:52.588Z,29.40
2018-06-30T02:52:45.486Z,28.30
2018-06-30T02:53:45.472Z,28.10
2018-06-30T02:55:38.461Z,27.50
2018-06-30T02:56:38.399Z,29.20
2018-06-30T02:58:31.368Z,31.30
2018-06-30T02:59:31.344Z,33.10
2018-06-30T03:01:24.385Z,34.60
2018-06-30T03:02:24.358Z,36.20
2018-06-30T03:03:24.357Z,36.60
2018-06-30T03:04:24.367Z,37.00
2018-06-30T03:05:24.346Z,37.60
2018-06-30T03:06:24.341Z,35.60
2018-06-30T03:07:24.381Z,36.20
2018-06-30T03:08:24.335Z,36.90
2018-06-30T03:09:24.330Z,37.90
2018-06-30T03:10:24.318Z,38.40
2018-06-30T03:11:24.316Z,35.40
2018-06-30T03:12:24.308Z,36.20
2018-06-30T03:13:24.322Z,36.70
2018-06-30T03:14:24.354Z,35.80
2018-06-30T03:15:24.305Z,36.00
2018-06-30T03:16:24.300Z,32.40
2018-06-30T03:17:24.301Z,36.00
2018-06-30T03:18:24.293Z,35.70
2018-06-30T03:19:24.301Z,35.60
2018-06-30T03:20:24.291Z,37.50
2018-06-30T03:21:24.293Z,36.10
2018-06-30T03:22:24.278Z,36.00
2018-06-30T03:23:24.283Z,37.30
2018-06-30T03:24:24.291Z,39.30
2018-06-30T03:25:24.267Z,38.80
2018-06-30T03:26:24.260Z,39.00
2018-06-30T03:27:24.283Z,38.20
2018-06-30T03:28:24.256Z,38.10
2018-06-30T03:29:24.270Z,39.70
2018-06-30T03:30:24.248Z,39.90
2018-06-30T03:31:24.338Z,39.10
2018-06-30T03:32:24.236Z,40.20
2018-06-30T03:33:24.236Z,40.50
2018-06-30T03:34:24.271Z,41.50
2018-06-30T03:35:24.224Z,39.60
2018-06-30T03:36:24.225Z,39.60
2018-06-30T03:37:24.224Z,38.50
2018-06-30T03:38:24.317Z,38.30
2018-06-30T03:39:24.322Z,39.30
2018-06-30T03:40:24.213Z,38.00
2018-06-30T03:41:24.221Z,39.70
2018-06-30T03:42:24.201Z,38.20
2018-06-30T03:43:24.195Z,38.10
2018-06-30T03:44:24.208Z,37.80
2018-06-30T03:45:24.186Z,37.60
2018-06-30T03:46:24.182Z,37.80
2018-06-30T03:47:24.183Z,38.30
2018-06-30T03:48:24.178Z,36.70
2018-06-30T03:49:24.169Z,36.80
2018-06-30T03:50:24.158Z,36.00
2018-06-30T03:51:24.171Z,35.30
2018-06-30T03:52:24.171Z,36.20
2018-06-30T03:53:24.153Z,34.40
2018-06-30T03:54:24.152Z,35.10
2018-06-30T03:55:24.147Z,35.10
2018-06-30T03:56:24.144Z,35.20
2018-06-30T03:57:24.142Z,35.00
2018-06-30T03:58:24.148Z,36.40
2018-06-30T03:59:24.135Z,34.40
2018-06-30T04:00:24.125Z,34.30
2018-06-30T04:01:24.119Z,35.00
2018-06-30T04:02:24.118Z,35.20
2018-06-30T04:03:24.142Z,35.10
2018-06-30T04:04:24.125Z,34.80
2018-06-30T04:05:24.109Z,35.00
2018-06-30T04:06:24.108Z,36.10
2018-06-30T04:07:24.105Z,34.50
2018-06-30T04:08:24.106Z,35.30
2018-06-30T04:09:24.094Z,34.20
2018-06-30T04:10:24.092Z,34.40
2018-06-30T04:11:24.088Z,35.70
2018-06-30T04:12:24.086Z,34.80
2018-06-30T04:13:24.095Z,34.70
2018-06-30T04:14:24.078Z,35.30
2018-06-30T04:15:24.081Z,34.40
2018-06-30T04:16:24.069Z,33.90
2018-06-30T04:17:24.073Z,35.00
2018-06-30T04:18:24.079Z,34.70
2018-06-30T04:19:24.075Z,34.10
2018-06-30T04:20:24.056Z,34.30
2018-06-30T04:21:24.048Z,34.10
2018-06-30T04:22:24.046Z,33.10
2018-06-30T04:23:24.047Z,34.50
2018-06-30T04:24:24.046Z,34.60
2018-06-30T04:25:24.062Z,33.90
2018-06-30T04:26:24.042Z,33.90
2018-06-30T04:27:24.041Z,33.20
2018-06-30T04:28:24.030Z,33.40
2018-06-30T04:29:24.033Z,34.20
2018-06-30T04:30:24.034Z,33.80
2018-06-30T04:31:24.018Z,33.20
2018-06-30T04:32:24.096Z,33.60
2018-06-30T04:33:24.013Z,33.90
2018-06-30T04:34:24.013Z,34.20
2018-06-30T04:35:24.015Z,34.20
2018-06-30T04:36:24.009Z,33.90
2018-06-30T04:37:24.005Z,33.20
2018-06-30T04:38:24.000Z,34.00
2018-06-30T04:39:24.002Z,33.70
2018-06-30T04:40:23.995Z,31.90
2018-06-30T04:41:24.000Z,32.60
2018-06-30T04:42:23.996Z,32.30
2018-06-30T04:43:23.976Z,31.60
2018-06-30T04:44:23.980Z,31.90
2018-06-30T04:45:23.987Z,30.80
2018-06-30T04:46:23.979Z,30.90
2018-06-30T04:47:23.976Z,30.30
2018-06-30T04:48:23.972Z,29.60
2018-06-30T04:49:23.969Z,29.50
2018-06-30T04:50:23.970Z,30.40
2018-06-30T04:51:23.969Z,29.80
2018-06-30T04:52:23.948Z,29.40
2018-06-30T04:53:23.951Z,28.60
2018-06-30T04:54:23.959Z,29.40
2018-06-30T04:55:23.946Z,29.20
2018-06-30T04:56:23.949Z,29.10
2018-06-30T04:57:23.951Z,28.10
2018-06-30T04:58:23.933Z,28.70
2018-06-30T04:59:23.939Z,28.50
2018-06-30T05:00:23.950Z,27.40
2018-06-30T05:01:23.936Z,28.00
2018-06-30T05:02:23.970Z,27.20
2018-06-30T05:03:23.948Z,27.00
2018-06-30T05:04:23.929Z,26.60
2018-06-30T05:05:23.943Z,26.50
2018-06-30T05:06:23.919Z,25.10
2018-06-30T05:07:23.947Z,26.00
2018-06-30T05:08:23.915Z,26.20
2018-06-30T05:09:23.917Z,24.70
2018-06-30T05:10:23.920Z,24.70
2018-06-30T05:11:23.913Z,24.80
2018-06-30T05:12:23.920Z,24.30
2018-06-30T05:13:24.247Z,23.20
2018-06-30T05:14:23.902Z,23.20
2018-06-30T05:15:23.903Z,23.40
2018-06-30T05:16:24.008Z,23.00
2018-06-30T05:17:23.889Z,22.10
2018-06-30T05:18:23.918Z,22.20
2018-06-30T05:19:23.882Z,22.40
2018-06-30T05:20:23.891Z,22.50
2018-06-30T05:21:23.924Z,21.00
2018-06-30T05:22:23.900Z,21.80
2018-06-30T05:23:24.903Z,21.70
2018-06-30T05:24:25.328Z,21.60
2018-06-30T05:25:23.879Z,21.10
2018-06-30T05:26:23.975Z,20.40
2018-06-30T05:27:23.879Z,20.30
2018-06-30T05:28:24.003Z,19.50
2018-06-30T05:29:24.746Z,19.70
2018-06-30T05:30:23.878Z,19.90
2018-06-30T05:31:23.868Z,19.10
2018-06-30T05:32:23.868Z,18.00
2018-06-30T05:33:23.955Z,17.80
2018-06-30T05:34:23.865Z,17.40
2018-06-30T05:35:23.880Z,17.70
2018-06-30T05:36:23.865Z,16.70
2018-06-30T05:37:23.868Z,16.90
2018-06-30T05:38:23.860Z,16.80
2018-06-30T05:39:23.867Z,16.70
2018-06-30T05:40:23.871Z,17.40
2018-06-30T05:41:23.855Z,17.60
2018-06-30T05:42:23.853Z,16.70
2018-06-30T05:43:23.869Z,16.70
2018-06-30T05:44:23.846Z,16.70
2018-06-30T05:45:24.756Z,15.40
2018-06-30T05:46:23.942Z,15.90
2018-06-30T05:47:23.897Z,14.80
2018-06-30T05:48:23.863Z,14.70
2018-06-30T05:49:24.213Z,15.10
2018-06-30T05:50:23.977Z,14.40
2018-06-30T05:51:23.984Z,15.30
2018-06-30T05:52:23.864Z,15.30
2018-06-30T05:53:23.999Z,15.20
2018-06-30T05:54:24.000Z,15.20
2018-06-30T05:55:23.849Z,15.10
2018-06-30T05:56:24.005Z,16.20
2018-06-30T05:57:23.847Z,15.00
2018-06-30T05:58:23.920Z,15.30
2018-06-30T05:59:24.031Z,15.20
2018-06-30T06:00:24.041Z,15.60
2018-06-30T06:01:24.041Z,14.70
2018-06-30T06:02:24.875Z,16.00
2018-06-30T06:03:23.853Z,15.60
2018-06-30T06:04:23.839Z,14.80
2018-06-30T06:05:23.857Z,15.00
2018-06-30T06:06:23.863Z,16.00
2018-06-30T06:07:23.842Z,16.00
2018-06-30T06:08:23.880Z,16.70
2018-06-30T06:09:23.843Z,16.70
2018-06-30T06:10:23.899Z,16.20
2018-06-30T06:11:23.835Z,16.70
2018-06-30T06:12:23.822Z,16.80
2018-06-30T06:13:23.832Z,17.10
2018-06-30T06:14:23.828Z,16.70
2018-06-30T06:15:23.843Z,17.00
2018-06-30T06:16:23.834Z,16.90
2018-06-30T06:17:23.853Z,16.50
2018-06-30T06:18:23.916Z,16.40
2018-06-30T06:19:23.832Z,16.70
2018-06-30T06:20:23.845Z,17.30
2018-06-30T06:21:23.844Z,16.70
2018-06-30T06:22:23.832Z,16.40
2018-06-30T06:23:23.833Z,17.10
2018-06-30T06:24:23.832Z,15.60
2018-06-30T06:25:23.836Z,16.00
2018-06-30T06:26:23.834Z,13.80
2018-06-30T06:27:23.871Z,14.30
2018-06-30T06:28:23.835Z,15.00
2018-06-30T06:29:23.828Z,15.00
2018-06-30T06:30:23.836Z,13.70
2018-06-30T06:31:23.836Z,14.70
2018-06-30T06:32:23.850Z,16.20
2018-06-30T06:33:23.838Z,15.70
2018-06-30T06:34:23.832Z,16.40
2018-06-30T06:35:23.839Z,16.30
2018-06-30T06:36:23.855Z,16.60
2018-06-30T06:37:23.842Z,15.90
2018-06-30T06:38:23.838Z,17.00
2018-06-30T06:39:23.860Z,16.10
2018-06-30T06:40:23.832Z,15.00
2018-06-30T06:41:23.843Z,15.90
2018-06-30T06:42:23.847Z,15.80
2018-06-30T06:43:23.844Z,15.40
2018-06-30T06:44:23.849Z,14.80
2018-06-30T06:45:23.859Z,14.80
2018-06-30T06:46:23.848Z,14.10
2018-06-30T06:47:23.878Z,13.70
2018-06-30T06:48:23.843Z,13.40
2018-06-30T06:49:23.853Z,14.10
2018-06-30T06:50:23.852Z,12.90
2018-06-30T06:51:23.855Z,13.20
2018-06-30T06:52:23.874Z,11.60
2018-06-30T06:53:26.855Z,11.70
2018-06-30T06:54:23.869Z,11.20
2018-06-30T06:55:23.864Z,10.40
2018-06-30T06:56:23.888Z,9.90
2018-06-30T06:57:23.915Z,9.00
2018-06-30T06:58:23.892Z,8.50
2018-06-30T06:59:23.891Z,8.90
2018-06-30T07:00:23.866Z,8.70
2018-06-30T07:01:23.888Z,9.50
2018-06-30T07:02:23.918Z,9.60
2018-06-30T07:03:23.884Z,9.40
2018-06-30T07:04:23.885Z,9.90
2018-06-30T07:05:23.892Z,9.50
2018-06-30T07:06:23.922Z,10.40
2018-06-30T07:07:23.932Z,10.10
2018-06-30T07:08:23.919Z,8.90
2018-06-30T07:09:24.090Z,9.20
2018-06-30T07:10:23.902Z,9.80
2018-06-30T07:11:23.909Z,9.40
2018-06-30T07:12:23.910Z,9.50
2018-06-30T07:13:23.925Z,9.30
2018-06-30T07:14:23.921Z,9.20
2018-06-30T07:15:23.933Z,9.50
2018-06-30T07:16:23.969Z,9.10
2018-06-30T07:17:23.951Z,9.30
2018-06-30T07:18:23.958Z,8.90
2018-06-30T07:19:23.963Z,8.60
2018-06-30T07:20:23.970Z,8.50
2018-06-30T07:21:23.982Z,8.70
2018-06-30T07:22:24.011Z,8.10
2018-06-30T07:23:24.160Z,7.90
2018-06-30T07:24:24.029Z,7.60
2018-06-30T07:25:24.022Z,7.70
2018-06-30T07:26:24.042Z,7.10
2018-06-30T07:27:24.042Z,7.80
2018-06-30T07:28:24.055Z,8.30
2018-06-30T07:29:24.066Z,7.80
2018-06-30T07:30:24.084Z,7.40
2018-06-30T07:31:24.091Z,8.30
2018-06-30T07:32:24.105Z,7.80
2018-06-30T07:33:24.107Z,7.50
2018-06-30T07:34:24.124Z,7.50
2018-06-30T07:35:24.252Z,7.50
2018-06-30T07:36:24.161Z,7.10
2018-06-30T07:37:24.339Z,6.80
2018-06-30T07:38:24.194Z,6.80
2018-06-30T07:39:24.194Z,6.80
2018-06-30T07:40:24.483Z,6.70
2018-06-30T07:41:24.221Z,6.90
2018-06-30T07:42:24.235Z,6.80
2018-06-30T07:43:24.251Z,6.60
2018-06-30T07:44:24.257Z,6.20
2018-06-30T07:45:24.298Z,6.90
2018-06-30T07:46:24.312Z,6.30
2018-06-30T07:47:24.312Z,6.20
2018-06-30T07:48:24.348Z,6.20
2018-06-30T07:49:24.340Z,6.50
2018-06-30T07:50:24.409Z,6.30
2018-06-30T07:51:24.367Z,6.40
2018-06-30T07:52:24.384Z,5.70
2018-06-30T07:53:24.398Z,5.90
2018-06-30T07:54:24.416Z,5.90
2018-06-30T07:55:24.434Z,6.30
2018-06-30T07:56:24.446Z,5.90
2018-06-30T07:57:24.462Z,6.30
2018-06-30T07:58:24.475Z,6.10
2018-06-30T07:59:24.490Z,5.30
2018-06-30T08:00:24.501Z,4.90
2018-06-30T08:01:24.554Z,5.20
2018-06-30T08:02:24.543Z,5.00
2018-06-30T08:03:24.565Z,5.30
2018-06-30T08:04:24.615Z,5.10
2018-06-30T08:05:24.584Z,5.10
2018-06-30T08:06:24.613Z,5.10
2018-06-30T08:07:24.700Z,5.20
2018-06-30T08:08:24.654Z,5.40
2018-06-30T08:09:24.659Z,5.80
2018-06-30T08:10:24.875Z,5.20
2018-06-30T08:11:24.889Z,5.30
2018-06-30T08:12:24.710Z,5.10
2018-06-30T08:13:24.771Z,5.50
2018-06-30T08:14:24.890Z,5.20
2018-06-30T08:15:24.751Z,5.10
2018-06-30T08:16:24.814Z,5.10
2018-06-30T08:17:24.785Z,5.10
2018-06-30T08:18:24.817Z,5.50
2018-06-30T08:19:24.882Z,5.40
2018-06-30T08:20:24.888Z,5.90
2018-06-30T08:21:24.863Z,6.00
2018-06-30T08:22:24.884Z,5.70
2018-06-30T08:23:24.901Z,5.90
2018-06-30T08:24:24.926Z,5.80
2018-06-30T08:25:24.943Z,5.60
2018-06-30T08:26:24.949Z,5.50
2018-06-30T08:27:24.970Z,5.20
2018-06-30T08:28:25.056Z,5.70
2018-06-30T08:29:25.059Z,5.60
2018-06-30T08:30:25.021Z,5.70
2018-06-30T08:31:25.045Z,5.80
2018-06-30T08:32:25.060Z,6.00
2018-06-30T08:33:25.088Z,5.60
2018-06-30T08:34:25.112Z,5.70
2018-06-30T08:35:25.115Z,5.90
2018-06-30T08:36:25.183Z,5.90
2018-06-30T08:37:25.153Z,5.90
2018-06-30T08:38:25.200Z,5.60
2018-06-30T08:39:25.188Z,5.50
2018-06-30T08:40:25.211Z,6.00
2018-06-30T08:41:25.218Z,5.40
2018-06-30T08:42:25.242Z,5.50
2018-06-30T08:43:25.259Z,5.40
2018-06-30T08:44:25.291Z,5.50
2018-06-30T08:45:25.309Z,5.70
2018-06-30T08:46:25.313Z,5.80
2018-06-30T08:47:25.339Z,5.30
2018-06-30T08:48:25.353Z,5.10
2018-06-30T08:49:25.538Z,5.50
2018-06-30T08:50:25.467Z,4.70
2018-06-30T08:51:25.409Z,4.70
2018-06-30T08:52:25.427Z,4.30
2018-06-30T08:53:25.463Z,4.90
2018-06-30T08:54:25.469Z,4.50
2018-06-30T08:55:25.510Z,5.30
2018-06-30T08:56:25.502Z,4.80
2018-06-30T08:57:25.526Z,5.20
2018-06-30T08:58:25.532Z,5.10
2018-06-30T08:59:25.556Z,5.20
2018-06-30T09:00:25.575Z,5.30
2018-06-30T09:01:25.594Z,5.30
2018-06-30T09:02:25.722Z,5.10
2018-06-30T09:03:25.647Z,5.40
2018-06-30T09:04:25.653Z,5.50
2018-06-30T09:05:25.672Z,5.40
2018-06-30T09:06:25.749Z,5.50
2018-06-30T09:07:25.711Z,5.70
2018-06-30T09:08:25.735Z,5.80
2018-06-30T09:09:25.754Z,5.60
2018-06-30T09:10:25.774Z,5.60
2018-06-30T09:11:26.150Z,5.80
2018-06-30T09:12:26.811Z,5.80
2018-06-30T09:13:26.198Z,5.80
2018-06-30T09:14:27.717Z,6.00
2018-06-30T09:15:26.939Z,6.10
2018-06-30T09:16:26.839Z,6.20
2018-06-30T09:17:27.200Z,2.70
2018-06-30T09:18:26.939Z,3.50
2018-06-30T09:19:27.515Z,3.80
2018-06-30T09:20:26.296Z,3.70
2018-06-30T09:21:27.034Z,3.90
2018-06-30T09:22:27.493Z,4.00
2018-06-30T09:23:26.564Z,4.30
2018-06-30T09:24:28.157Z,4.40
2018-06-30T09:25:27.571Z,4.50
2018-06-30T09:26:26.621Z,4.10
2018-06-30T09:27:27.070Z,4.30
2018-06-30T09:28:26.528Z,4.00
2018-06-30T09:29:26.423Z,4.20
2018-06-30T09:30:26.283Z,3.90
2018-06-30T09:31:26.341Z,4.00
2018-06-30T09:32:26.311Z,3.90
2018-06-30T09:33:26.584Z,3.80
2018-06-30T09:34:26.431Z,3.70
2018-06-30T09:35:26.433Z,4.40
2018-06-30T09:36:26.364Z,4.10
2018-06-30T09:37:26.393Z,3.90
2018-06-30T09:38:26.480Z,4.00
2018-06-30T09:39:26.452Z,4.10
2018-06-30T09:40:26.419Z,3.90
2018-06-30T09:41:26.442Z,3.80
2018-06-30T09:42:26.473Z,3.80
2018-06-30T09:43:26.486Z,4.40
2018-06-30T09:44:26.550Z,4.10
2018-06-30T09:45:26.524Z,4.50
2018-06-30T09:46:26.741Z,4.20
2018-06-30T09:47:26.585Z,4.20
2018-06-30T09:48:26.588Z,3.90
2018-06-30T09:49:26.602Z,4.10
2018-06-30T09:50:26.641Z,4.10
2018-06-30T09:51:26.668Z,4.30
2018-06-30T09:52:26.789Z,4.20
2018-06-30T09:53:26.690Z,4.00
2018-06-30T09:54:26.712Z,4.20
2018-06-30T09:55:26.730Z,4.30
2018-06-30T09:56:26.745Z,4.40
2018-06-30T09:57:26.774Z,4.10
2018-06-30T09:58:26.792Z,4.50
2018-06-30T09:59:26.858Z,4.30
2018-06-30T10:00:26.871Z,4.40
2018-06-30T10:01:26.852Z,4.90
2018-06-30T10:02:26.890Z,4.60
2018-06-30T10:03:26.893Z,4.70
2018-06-30T10:04:26.914Z,4.90
2018-06-30T10:05:26.938Z,4.80
2018-06-30T10:06:26.979Z,4.50
2018-06-30T10:07:26.976Z,4.60
2018-06-30T10:08:26.995Z,4.40
2018-06-30T10:09:27.092Z,5.10
2018-06-30T10:10:27.032Z,5.10
2018-06-30T10:11:27.051Z,4.70
2018-06-30T10:12:27.112Z,5.00
2018-06-30T10:13:27.102Z,5.20
2018-06-30T10:14:27.123Z,5.80
2018-06-30T10:15:27.146Z,5.30
2018-06-30T10:16:27.155Z,5.40
2018-06-30T10:17:27.271Z,5.50
2018-06-30T10:18:27.227Z,5.40
2018-06-30T10:19:27.366Z,5.60
2018-06-30T10:20:27.287Z,6.50
2018-06-30T10:21:27.506Z,6.30
2018-06-30T10:22:27.538Z,6.50
2018-06-30T10:23:27.681Z,6.60
2018-06-30T10:24:27.659Z,7.00
2018-06-30T10:25:28.098Z,6.90
2018-06-30T10:26:28.624Z,7.30
2018-06-30T10:27:29.140Z,7.70
2018-06-30T10:28:27.405Z,7.90
2018-06-30T10:29:27.429Z,5.80
2018-06-30T10:30:27.442Z,3.70
2018-06-30T10:31:27.471Z,3.10
2018-06-30T10:32:27.492Z,2.20
2018-06-30T10:33:27.508Z,1.80
2018-06-30T10:34:27.531Z,1.40
2018-06-30T10:35:27.550Z,1.10
2018-06-30T10:36:27.558Z,1.00
2018-06-30T10:37:27.637Z,0.70
2018-06-30T10:38:27.585Z,0.50
2018-06-30T10:39:27.605Z,0.40
2018-06-30T10:40:27.619Z,0.50
2018-06-30T10:41:27.635Z,0.50
2018-06-30T10:42:27.646Z,0.70
2018-06-30T10:43:27.663Z,0.50
2018-06-30T10:44:27.703Z,0.50
2018-06-30T10:45:27.687Z,0.40
2018-06-30T10:46:27.699Z,0.30
2018-06-30T10:47:27.704Z,0.20
2018-06-30T10:48:27.715Z,0.20
2018-06-30T10:49:27.726Z,0.20
2018-06-30T10:50:27.746Z,0.20
2018-06-30T10:51:27.765Z,0.50
2018-06-30T10:52:27.768Z,0.60
2018-06-30T10:53:27.788Z,0.60
2018-06-30T10:54:27.803Z,0.60
2018-06-30T10:55:27.833Z,0.60
2018-06-30T10:56:27.811Z,0.80
2018-06-30T10:57:27.830Z,0.90
2018-06-30T10:58:27.854Z,1.10
2018-06-30T10:59:28.035Z,1.30
2018-06-30T11:00:27.928Z,1.70
2018-06-30T11:01:27.920Z,1.60
2018-06-30T11:02:28.073Z,1.90
2018-06-30T11:03:27.946Z,1.90
2018-06-30T11:04:28.065Z,2.20
2018-06-30T11:05:28.071Z,2.10
2018-06-30T11:06:28.078Z,2.40
2018-06-30T11:07:28.085Z,2.40
2018-06-30T11:08:28.032Z,2.90
2018-06-30T11:09:28.058Z,3.10
2018-06-30T11:10:28.041Z,2.90
2018-06-30T11:11:28.063Z,3.20
2018-06-30T11:12:28.071Z,3.30
2018-06-30T11:13:28.099Z,3.50
2018-06-30T11:14:28.117Z,3.20
2018-06-30T11:15:28.135Z,3.10
2018-06-30T11:16:28.156Z,3.40
2018-06-30T11:17:28.187Z,3.60
2018-06-30T11:18:28.187Z,3.30
2018-06-30T11:19:28.220Z,3.50
2018-06-30T11:20:28.230Z,3.40
2018-06-30T11:21:28.238Z,3.50
2018-06-30T11:22:28.294Z,3.40
2018-06-30T11:23:28.285Z,3.50
2018-06-30T11:24:28.305Z,3.60
2018-06-30T11:25:28.325Z,4.20
2018-06-30T11:26:28.356Z,4.40
2018-06-30T11:27:28.363Z,4.40
2018-06-30T11:28:28.392Z,4.90
2018-06-30T11:29:28.441Z,4.60
2018-06-30T11:30:28.421Z,4.80
2018-06-30T11:31:28.635Z,5.20
2018-06-30T11:32:28.464Z,5.40
2018-06-30T11:33:28.569Z,5.60
2018-06-30T11:34:28.504Z,5.20
2018-06-30T11:35:28.518Z,5.10
2018-06-30T11:36:28.538Z,4.80
2018-06-30T11:37:28.565Z,4.90
2018-06-30T11:38:28.574Z,4.90
2018-06-30T11:39:28.595Z,4.80
2018-06-30T11:40:28.624Z,4.50
2018-06-30T11:41:28.633Z,4.70
2018-06-30T11:42:28.653Z,4.70
2018-06-30T11:43:28.670Z,5.10
2018-06-30T11:44:28.705Z,4.50
2018-06-30T11:45:28.708Z,3.90
2018-06-30T11:46:28.734Z,4.30
2018-06-30T11:47:28.748Z,4.50
2018-06-30T11:48:28.767Z,4.40
2018-06-30T11:49:28.788Z,4.20
2018-06-30T11:50:28.818Z,4.00
2018-06-30T11:51:28.825Z,4.40
2018-06-30T11:52:28.840Z,4.70
2018-06-30T11:53:29.001Z,4.60
2018-06-30T11:54:28.881Z,4.40
2018-06-30T11:55:28.906Z,4.50
2018-06-30T11:56:29.014Z,4.40
2018-06-30T11:57:28.939Z,4.20
2018-06-30T11:58:28.958Z,4.20
2018-06-30T11:59:29.017Z,4.00
2018-06-30T12:00:28.998Z,4.10
2018-06-30T12:01:29.016Z,4.20
2018-06-30T12:02:29.033Z,4.30
2018-06-30T12:03:29.097Z,4.20
2018-06-30T12:04:29.069Z,4.30
2018-06-30T12:05:29.096Z,4.10
2018-06-30T12:06:29.113Z,4.30
2018-06-30T12:07:29.228Z,4.60
2018-06-30T12:08:29.148Z,4.20
2018-06-30T12:09:29.171Z,4.50
2018-06-30T12:10:29.220Z,4.20
2018-06-30T12:11:29.205Z,4.30
2018-06-30T12:12:29.232Z,4.70
2018-06-30T12:13:29.260Z,4.40
2018-06-30T12:14:29.266Z,3.30
2018-06-30T12:15:29.283Z,2.30
2018-06-30T12:16:29.304Z,1.70
2018-06-30T12:17:29.319Z,1.30
2018-06-30T12:18:29.340Z,1.20
2018-06-30T12:19:29.351Z,1.20
2018-06-30T12:20:29.369Z,1.20
2018-06-30T12:21:29.569Z,1.30
2018-06-30T12:22:29.404Z,1.50
2018-06-30T12:23:29.421Z,1.50
2018-06-30T12:24:29.434Z,1.60
2018-06-30T12:25:29.443Z,1.70
2018-06-30T12:26:29.625Z,1.80
2018-06-30T12:27:29.505Z,1.90
2018-06-30T12:28:29.495Z,2.00
2018-06-30T12:29:29.518Z,2.30
2018-06-30T12:30:29.534Z,2.30
2018-06-30T12:31:29.563Z,2.50
2018-06-30T12:32:29.566Z,2.70
2018-06-30T12:33:29.580Z,2.80
2018-06-30T12:34:29.600Z,2.90
2018-06-30T12:35:29.613Z,2.90
2018-06-30T12:36:29.627Z,3.30
2018-06-30T12:37:29.656Z,3.40
2018-06-30T12:38:29.671Z,3.10
2018-06-30T12:39:29.691Z,2.60
2018-06-30T12:40:29.725Z,1.90
2018-06-30T12:41:29.717Z,1.60
2018-06-30T12:42:29.743Z,1.60
2018-06-30T12:43:29.754Z,1.10
2018-06-30T12:44:29.762Z,0.90
2018-06-30T12:45:29.782Z,0.70
2018-06-30T12:46:29.798Z,0.60
2018-06-30T12:47:29.814Z,0.40
2018-06-30T12:48:29.828Z,0.40
2018-06-30T12:49:29.844Z,0.40
2018-06-30T12:50:29.849Z,0.30
2018-06-30T12:51:29.865Z,0.20
2018-06-30T12:52:29.875Z,0.30
2018-06-30T12:53:29.887Z,0.20
2018-06-30T12:54:30.093Z,0.20
2018-06-30T12:55:29.910Z,0.20
2018-06-30T12:56:29.921Z,0.20
2018-06-30T12:57:29.939Z,0.20
2018-06-30T12:58:29.937Z,0.20
2018-06-30T12:59:29.950Z,0.20
2018-06-30T13:00:29.947Z,0.10
2018-06-30T13:01:29.956Z,0.20
2018-06-30T13:02:29.967Z,0.20
2018-06-30T13:03:29.979Z,0.20
2018-06-30T13:04:30.022Z,0.20
2018-06-30T13:05:29.998Z,0.20
2018-06-30T13:06:30.014Z,0.10
2018-06-30T13:07:30.020Z,0.20
2018-06-30T13:08:30.139Z,0.10
2018-06-30T13:09:30.121Z,0.20
2018-06-30T13:10:30.047Z,0.20
2018-06-30T13:11:30.065Z,0.10
2018-06-30T13:12:30.052Z,0.20
2018-06-30T13:13:30.063Z,0.10
2018-06-30T13:14:30.088Z,0.20
2018-06-30T13:15:30.075Z,0.10
2018-06-30T13:16:30.089Z,0.20
2018-06-30T13:17:30.089Z,0.20
2018-06-30T13:18:30.097Z,0.20
2018-06-30T13:19:30.106Z,0.20
2018-06-30T13:20:30.111Z,0.20
2018-06-30T13:21:30.119Z,0.20
2018-06-30T13:22:30.211Z,0.20
2018-06-30T13:23:30.140Z,0.20
2018-06-30T13:24:30.217Z,0.10
2018-06-30T13:25:30.147Z,0.10
2018-06-30T13:26:30.203Z,0.10
2018-06-30T13:27:30.157Z,0.10
2018-06-30T13:28:30.167Z,0.10
2018-06-30T13:29:30.205Z,0.10
2018-06-30T13:30:30.172Z,0.10
2018-06-30T13:31:30.180Z,0.20
2018-06-30T13:32:30.217Z,0.10
2018-06-30T13:33:30.193Z,0.10
2018-06-30T13:34:30.252Z,0.10
2018-06-30T13:35:30.211Z,0.10
2018-06-30T13:36:30.228Z,0.10
2018-06-30T13:37:30.229Z,0.10
2018-06-30T13:38:30.230Z,0.10
2018-06-30T13:39:30.299Z,0.10
2018-06-30T13:40:30.242Z,0.10
2018-06-30T13:41:30.318Z,0.20
2018-06-30T13:42:30.257Z,0.10
2018-06-30T13:43:30.280Z,0.10
2018-06-30T13:44:30.295Z,0.10
2018-06-30T13:45:30.275Z,0.10
2018-06-30T13:46:30.342Z,0.10
2018-06-30T13:47:30.274Z,0.10
2018-06-30T13:48:30.289Z,0.10
2018-06-30T13:49:30.354Z,0.10
2018-06-30T13:50:30.303Z,0.10
2018-06-30T13:51:30.317Z,0.10
2018-06-30T13:52:30.372Z,0.20
2018-06-30T13:53:30.323Z,0.10
2018-06-30T13:54:30.347Z,0.20
2018-06-30T13:55:30.400Z,0.10
2018-06-30T13:56:30.345Z,0.10